sensor_id;sensor_type;location;lat;lon;timestamp;pressure;altitude;pressure_sealevel;temperature
70969;BMP280;58630;43.022;25.100;2024-03-08T00:01:56;;;;12.30
70969;BMP280;58630;43.022;25.100;2024-03-08T00:04:21;;;;12.30
70969;BMP280;58630;43.022;25.100;2024-03-08T00:06:47;;;;12.30
70969;BMP280;58630;43.022;25.100;2024-03-08T00:09:13;;;;12.30
70969;BMP280;58630;43.022;25.100;2024-03-08T00:11:38;;;;12.30
70969;BMP280;58630;43.022;25.100;2024-03-08T00:14:04;;;;12.30
70969;BMP280;58630;43.022;25.100;2024-03-08T00:16:33;;;;12.20
70969;BMP280;58630;43.022;25.100;2024-03-08T00:18:59;;;;12.30
70969;BMP280;58630;43.022;25.100;2024-03-08T00:21:24;;;;12.20
70969;BMP280;58630;43.022;25.100;2024-03-08T00:23:52;;;;12.20
70969;BMP280;58630;43.022;25.100;2024-03-08T00:26:19;;;;12.20
70969;BMP280;58630;43.022;25.100;2024-03-08T00:28:45;;;;12.20
70969;BMP280;58630;43.022;25.100;2024-03-08T00:31:10;;;;12.20
70969;BMP280;58630;43.022;25.100;2024-03-08T00:33:36;;;;12.20
70969;BMP280;58630;43.022;25.100;2024-03-08T00:36:02;;;;12.20
70969;BMP280;58630;43.022;25.100;2024-03-08T00:38:27;;;;12.20
70969;BMP280;58630;43.022;25.100;2024-03-08T00:40:53;;;;12.20
70969;BMP280;58630;43.022;25.100;2024-03-08T00:43:18;;;;12.20
70969;BMP280;58630;43.022;25.100;2024-03-08T00:45:44;;;;12.20
70969;BMP280;58630;43.022;25.100;2024-03-08T00:48:09;;;;12.20
70969;BMP280;58630;43.022;25.100;2024-03-08T00:50:36;;;;12.10
70969;BMP280;58630;43.022;25.100;2024-03-08T00:53:02;;;;12.10
70969;BMP280;58630;43.022;25.100;2024-03-08T00:55:27;;;;12.10
70969;BMP280;58630;43.022;25.100;2024-03-08T00:57:54;;;;12.10
70969;BMP280;58630;43.022;25.100;2024-03-08T01:00:20;;;;12.10
70969;BMP280;58630;43.022;25.100;2024-03-08T01:02:46;;;;12.10
70969;BMP280;58630;43.022;25.100;2024-03-08T01:05:11;;;;12.10
70969;BMP280;58630;43.022;25.100;2024-03-08T01:07:37;;;;12.10
70969;BMP280;58630;43.022;25.100;2024-03-08T01:10:03;;;;12.10
70969;BMP280;58630;43.022;25.100;2024-03-08T01:12:28;;;;12.10
70969;BMP280;58630;43.022;25.100;2024-03-08T01:14:55;;;;12.10
70969;BMP280;58630;43.022;25.100;2024-03-08T01:17:20;;;;12.10
70969;BMP280;58630;43.022;25.100;2024-03-08T01:19:47;;;;12.10
70969;BMP280;58630;43.022;25.100;2024-03-08T01:22:12;;;;12.00
70969;BMP280;58630;43.022;25.100;2024-03-08T01:24:38;;;;12.10
70969;BMP280;58630;43.022;25.100;2024-03-08T01:27:04;;;;12.10
70969;BMP280;58630;43.022;25.100;2024-03-08T01:29:29;;;;12.00
70969;BMP280;58630;43.022;25.100;2024-03-08T01:31:55;;;;12.00
70969;BMP280;58630;43.022;25.100;2024-03-08T01:34:21;;;;12.00
70969;BMP280;58630;43.022;25.100;2024-03-08T01:36:48;;;;12.00
70969;BMP280;58630;43.022;25.100;2024-03-08T01:39:14;;;;12.00
70969;BMP280;58630;43.022;25.100;2024-03-08T01:41:39;;;;12.00
70969;BMP280;58630;43.022;25.100;2024-03-08T01:44:05;;;;12.00
70969;BMP280;58630;43.022;25.100;2024-03-08T01:46:32;;;;12.00
70969;BMP280;58630;43.022;25.100;2024-03-08T01:48:58;;;;12.00
70969;BMP280;58630;43.022;25.100;2024-03-08T01:51:26;;;;12.00
70969;BMP280;58630;43.022;25.100;2024-03-08T01:53:53;;;;12.00
70969;BMP280;58630;43.022;25.100;2024-03-08T01:56:21;;;;12.00
70969;BMP280;58630;43.022;25.100;2024-03-08T01:58:46;;;;12.00
70969;BMP280;58630;43.022;25.100;2024-03-08T02:01:12;;;;11.90
70969;BMP280;58630;43.022;25.100;2024-03-08T02:03:41;;;;11.90
70969;BMP280;58630;43.022;25.100;2024-03-08T02:06:09;;;;11.90
70969;BMP280;58630;43.022;25.100;2024-03-08T02:08:35;;;;11.90
70969;BMP280;58630;43.022;25.100;2024-03-08T02:11:01;;;;11.90
70969;BMP280;58630;43.022;25.100;2024-03-08T02:13:27;;;;11.90
70969;BMP280;58630;43.022;25.100;2024-03-08T02:15:54;;;;11.90
70969;BMP280;58630;43.022;25.100;2024-03-08T02:18:20;;;;11.90
70969;BMP280;58630;43.022;25.100;2024-03-08T02:20:49;;;;11.90
70969;BMP280;58630;43.022;25.100;2024-03-08T02:23:15;;;;11.90
70969;BMP280;58630;43.022;25.100;2024-03-08T02:25:41;;;;11.90
70969;BMP280;58630;43.022;25.100;2024-03-08T02:28:10;;;;11.90
70969;BMP280;58630;43.022;25.100;2024-03-08T02:30:36;;;;11.90
70969;BMP280;58630;43.022;25.100;2024-03-08T02:33:02;;;;11.90
70969;BMP280;58630;43.022;25.100;2024-03-08T02:35:27;;;;11.80
70969;BMP280;58630;43.022;25.100;2024-03-08T02:37:53;;;;11.80
70969;BMP280;58630;43.022;25.100;2024-03-08T02:40:19;;;;11.80
70969;BMP280;58630;43.022;25.100;2024-03-08T02:42:44;;;;11.80
70969;BMP280;58630;43.022;25.100;2024-03-08T02:45:10;;;;11.80
70969;BMP280;58630;43.022;25.100;2024-03-08T02:47:35;;;;11.80
70969;BMP280;58630;43.022;25.100;2024-03-08T02:50:01;;;;11.80
70969;BMP280;58630;43.022;25.100;2024-03-08T02:52:27;;;;11.80
70969;BMP280;58630;43.022;25.100;2024-03-08T02:54:52;;;;11.80
70969;BMP280;58630;43.022;25.100;2024-03-08T02:57:18;;;;11.80
70969;BMP280;58630;43.022;25.100;2024-03-08T02:59:44;;;;11.80
70969;BMP280;58630;43.022;25.100;2024-03-08T03:02:11;;;;11.80
70969;BMP280;58630;43.022;25.100;2024-03-08T03:04:39;;;;11.80
70969;BMP280;58630;43.022;25.100;2024-03-08T03:07:04;;;;11.80
70969;BMP280;58630;43.022;25.100;2024-03-08T03:09:30;;;;11.80
70969;BMP280;58630;43.022;25.100;2024-03-08T03:11:58;;;;11.80
70969;BMP280;58630;43.022;25.100;2024-03-08T03:14:24;;;;11.80
70969;BMP280;58630;43.022;25.100;2024-03-08T03:16:52;;;;11.70
70969;BMP280;58630;43.022;25.100;2024-03-08T03:19:17;;;;11.70
70969;BMP280;58630;43.022;25.100;2024-03-08T03:21:43;;;;11.80
70969;BMP280;58630;43.022;25.100;2024-03-08T03:24:09;;;;11.70
70969;BMP280;58630;43.022;25.100;2024-03-08T03:26:40;;;;11.70
70969;BMP280;58630;43.022;25.100;2024-03-08T03:29:06;;;;11.70
70969;BMP280;58630;43.022;25.100;2024-03-08T03:31:31;;;;11.70
70969;BMP280;58630;43.022;25.100;2024-03-08T03:33:57;;;;11.70
70969;BMP280;58630;43.022;25.100;2024-03-08T03:36:29;;;;11.70
70969;BMP280;58630;43.022;25.100;2024-03-08T03:38:55;;;;11.70
70969;BMP280;58630;43.022;25.100;2024-03-08T03:41:35;;;;11.70
70969;BMP280;58630;43.022;25.100;2024-03-08T03:44:00;;;;11.70
70969;BMP280;58630;43.022;25.100;2024-03-08T03:46:26;;;;11.70
70969;BMP280;58630;43.022;25.100;2024-03-08T03:48:53;;;;11.70
70969;BMP280;58630;43.022;25.100;2024-03-08T03:51:18;;;;11.70
70969;BMP280;58630;43.022;25.100;2024-03-08T03:53:45;;;;11.70
70969;BMP280;58630;43.022;25.100;2024-03-08T03:56:10;;;;11.70
70969;BMP280;58630;43.022;25.100;2024-03-08T03:58:36;;;;11.70
70969;BMP280;58630;43.022;25.100;2024-03-08T04:01:04;;;;11.60
70969;BMP280;58630;43.022;25.100;2024-03-08T04:03:29;;;;11.60
70969;BMP280;58630;43.022;25.100;2024-03-08T04:05:55;;;;11.60
70969;BMP280;58630;43.022;25.100;2024-03-08T04:08:20;;;;11.60
70969;BMP280;58630;43.022;25.100;2024-03-08T04:10:46;;;;11.60
70969;BMP280;58630;43.022;25.100;2024-03-08T04:13:11;;;;11.60
70969;BMP280;58630;43.022;25.100;2024-03-08T04:15:37;;;;11.60
70969;BMP280;58630;43.022;25.100;2024-03-08T04:18:03;;;;11.60
70969;BMP280;58630;43.022;25.100;2024-03-08T04:20:29;;;;11.60
70969;BMP280;58630;43.022;25.100;2024-03-08T04:22:55;;;;11.50
70969;BMP280;58630;43.022;25.100;2024-03-08T04:25:21;;;;11.60
70969;BMP280;58630;43.022;25.100;2024-03-08T04:27:47;;;;11.60
70969;BMP280;58630;43.022;25.100;2024-03-08T04:30:14;;;;11.60
70969;BMP280;58630;43.022;25.100;2024-03-08T04:32:39;;;;11.50
70969;BMP280;58630;43.022;25.100;2024-03-08T04:35:06;;;;11.50
70969;BMP280;58630;43.022;25.100;2024-03-08T04:37:32;;;;11.60
70969;BMP280;58630;43.022;25.100;2024-03-08T04:39:57;;;;11.50
70969;BMP280;58630;43.022;25.100;2024-03-08T04:42:23;;;;11.50
70969;BMP280;58630;43.022;25.100;2024-03-08T04:44:49;;;;11.50
70969;BMP280;58630;43.022;25.100;2024-03-08T04:47:14;;;;11.50
70969;BMP280;58630;43.022;25.100;2024-03-08T04:49:41;;;;11.50
70969;BMP280;58630;43.022;25.100;2024-03-08T04:52:06;;;;11.50
70969;BMP280;58630;43.022;25.100;2024-03-08T04:54:32;;;;11.50
70969;BMP280;58630;43.022;25.100;2024-03-08T04:56:58;;;;11.50
70969;BMP280;58630;43.022;25.100;2024-03-08T04:59:25;;;;11.50
70969;BMP280;58630;43.022;25.100;2024-03-08T05:01:52;;;;11.40
70969;BMP280;58630;43.022;25.100;2024-03-08T05:04:17;;;;11.50
70969;BMP280;58630;43.022;25.100;2024-03-08T05:06:43;;;;11.40
70969;BMP280;58630;43.022;25.100;2024-03-08T05:09:08;;;;11.50
70969;BMP280;58630;43.022;25.100;2024-03-08T05:11:44;;;;11.40
70969;BMP280;58630;43.022;25.100;2024-03-08T05:14:10;;;;11.40
70969;BMP280;58630;43.022;25.100;2024-03-08T05:16:36;;;;11.40
70969;BMP280;58630;43.022;25.100;2024-03-08T05:19:02;;;;11.40
70969;BMP280;58630;43.022;25.100;2024-03-08T05:21:27;;;;11.40
70969;BMP280;58630;43.022;25.100;2024-03-08T05:23:54;;;;11.40
70969;BMP280;58630;43.022;25.100;2024-03-08T05:26:19;;;;11.40
70969;BMP280;58630;43.022;25.100;2024-03-08T05:28:45;;;;11.40
70969;BMP280;58630;43.022;25.100;2024-03-08T05:31:18;;;;11.40
70969;BMP280;58630;43.022;25.100;2024-03-08T05:33:43;;;;11.40
70969;BMP280;58630;43.022;25.100;2024-03-08T05:36:09;;;;11.40
70969;BMP280;58630;43.022;25.100;2024-03-08T05:38:34;;;;11.30
70969;BMP280;58630;43.022;25.100;2024-03-08T05:41:00;;;;11.40
70969;BMP280;58630;43.022;25.100;2024-03-08T05:43:26;;;;11.30
70969;BMP280;58630;43.022;25.100;2024-03-08T05:45:52;;;;11.30
70969;BMP280;58630;43.022;25.100;2024-03-08T05:48:17;;;;11.30
70969;BMP280;58630;43.022;25.100;2024-03-08T05:50:43;;;;11.30
70969;BMP280;58630;43.022;25.100;2024-03-08T05:53:09;;;;11.30
70969;BMP280;58630;43.022;25.100;2024-03-08T05:55:35;;;;11.30
70969;BMP280;58630;43.022;25.100;2024-03-08T05:58:00;;;;11.30
70969;BMP280;58630;43.022;25.100;2024-03-08T06:00:26;;;;11.30
70969;BMP280;58630;43.022;25.100;2024-03-08T06:02:52;;;;11.30
70969;BMP280;58630;43.022;25.100;2024-03-08T06:05:18;;;;11.30
70969;BMP280;58630;43.022;25.100;2024-03-08T06:07:44;;;;11.30
70969;BMP280;58630;43.022;25.100;2024-03-08T06:10:10;;;;11.30
70969;BMP280;58630;43.022;25.100;2024-03-08T06:12:36;;;;11.30
70969;BMP280;58630;43.022;25.100;2024-03-08T06:15:09;;;;11.30
70969;BMP280;58630;43.022;25.100;2024-03-08T06:17:35;;;;11.30
70969;BMP280;58630;43.022;25.100;2024-03-08T06:20:01;;;;11.20
70969;BMP280;58630;43.022;25.100;2024-03-08T06:22:27;;;;11.20
70969;BMP280;58630;43.022;25.100;2024-03-08T06:24:53;;;;11.20
70969;BMP280;58630;43.022;25.100;2024-03-08T06:27:19;;;;11.20
70969;BMP280;58630;43.022;25.100;2024-03-08T06:29:45;;;;11.20
70969;BMP280;58630;43.022;25.100;2024-03-08T06:32:10;;;;11.20
70969;BMP280;58630;43.022;25.100;2024-03-08T06:34:36;;;;11.20
70969;BMP280;58630;43.022;25.100;2024-03-08T06:37:01;;;;11.20
70969;BMP280;58630;43.022;25.100;2024-03-08T06:39:27;;;;11.20
70969;BMP280;58630;43.022;25.100;2024-03-08T06:41:57;;;;11.20
70969;BMP280;58630;43.022;25.100;2024-03-08T06:44:22;;;;11.20
70969;BMP280;58630;43.022;25.100;2024-03-08T06:46:48;;;;11.20
70969;BMP280;58630;43.022;25.100;2024-03-08T06:49:14;;;;11.10
70969;BMP280;58630;43.022;25.100;2024-03-08T06:51:40;;;;11.10
70969;BMP280;58630;43.022;25.100;2024-03-08T06:54:06;;;;11.10
70969;BMP280;58630;43.022;25.100;2024-03-08T06:56:34;;;;11.10
70969;BMP280;58630;43.022;25.100;2024-03-08T06:58:59;;;;11.10
70969;BMP280;58630;43.022;25.100;2024-03-08T07:01:25;;;;11.10
70969;BMP280;58630;43.022;25.100;2024-03-08T07:03:51;;;;11.10
70969;BMP280;58630;43.022;25.100;2024-03-08T07:06:18;;;;11.10
70969;BMP280;58630;43.022;25.100;2024-03-08T07:08:44;;;;11.10
70969;BMP280;58630;43.022;25.100;2024-03-08T07:11:11;;;;11.10
70969;BMP280;58630;43.022;25.100;2024-03-08T07:13:37;;;;11.10
70969;BMP280;58630;43.022;25.100;2024-03-08T07:16:04;;;;11.10
70969;BMP280;58630;43.022;25.100;2024-03-08T07:18:30;;;;11.10
70969;BMP280;58630;43.022;25.100;2024-03-08T07:20:56;;;;11.10
70969;BMP280;58630;43.022;25.100;2024-03-08T07:23:22;;;;11.10
70969;BMP280;58630;43.022;25.100;2024-03-08T07:26:06;;;;11.10
70969;BMP280;58630;43.022;25.100;2024-03-08T07:28:32;;;;11.10
70969;BMP280;58630;43.022;25.100;2024-03-08T07:30:58;;;;11.10
70969;BMP280;58630;43.022;25.100;2024-03-08T07:33:38;;;;11.10
70969;BMP280;58630;43.022;25.100;2024-03-08T07:36:04;;;;11.10
70969;BMP280;58630;43.022;25.100;2024-03-08T07:38:30;;;;11.10
70969;BMP280;58630;43.022;25.100;2024-03-08T07:40:55;;;;11.10
70969;BMP280;58630;43.022;25.100;2024-03-08T07:43:22;;;;11.10
70969;BMP280;58630;43.022;25.100;2024-03-08T07:45:48;;;;11.10
70969;BMP280;58630;43.022;25.100;2024-03-08T07:48:13;;;;11.10
70969;BMP280;58630;43.022;25.100;2024-03-08T07:50:39;;;;11.10
70969;BMP280;58630;43.022;25.100;2024-03-08T07:53:05;;;;11.10
70969;BMP280;58630;43.022;25.100;2024-03-08T07:55:32;;;;11.10
70969;BMP280;58630;43.022;25.100;2024-03-08T07:57:58;;;;11.10
70969;BMP280;58630;43.022;25.100;2024-03-08T08:00:23;;;;11.10
70969;BMP280;58630;43.022;25.100;2024-03-08T08:02:49;;;;11.10
70969;BMP280;58630;43.022;25.100;2024-03-08T08:05:15;;;;11.10
70969;BMP280;58630;43.022;25.100;2024-03-08T08:07:44;;;;11.00
70969;BMP280;58630;43.022;25.100;2024-03-08T08:10:09;;;;11.10
70969;BMP280;58630;43.022;25.100;2024-03-08T08:12:42;;;;11.00
70969;BMP280;58630;43.022;25.100;2024-03-08T08:15:07;;;;11.00
70969;BMP280;58630;43.022;25.100;2024-03-08T08:17:33;;;;11.00
70969;BMP280;58630;43.022;25.100;2024-03-08T08:20:00;;;;11.00
70969;BMP280;58630;43.022;25.100;2024-03-08T08:22:25;;;;11.00
70969;BMP280;58630;43.022;25.100;2024-03-08T08:24:51;;;;11.00
70969;BMP280;58630;43.022;25.100;2024-03-08T08:27:17;;;;11.00
70969;BMP280;58630;43.022;25.100;2024-03-08T08:29:43;;;;11.00
70969;BMP280;58630;43.022;25.100;2024-03-08T08:32:11;;;;11.00
70969;BMP280;58630;43.022;25.100;2024-03-08T08:34:37;;;;11.00
70969;BMP280;58630;43.022;25.100;2024-03-08T08:37:02;;;;11.00
70969;BMP280;58630;43.022;25.100;2024-03-08T08:39:28;;;;11.00
70969;BMP280;58630;43.022;25.100;2024-03-08T08:41:53;;;;11.00
70969;BMP280;58630;43.022;25.100;2024-03-08T08:44:19;;;;11.00
70969;BMP280;58630;43.022;25.100;2024-03-08T08:46:44;;;;11.00
70969;BMP280;58630;43.022;25.100;2024-03-08T08:49:10;;;;11.00
70969;BMP280;58630;43.022;25.100;2024-03-08T08:51:38;;;;11.00
70969;BMP280;58630;43.022;25.100;2024-03-08T08:54:04;;;;11.00
70969;BMP280;58630;43.022;25.100;2024-03-08T08:56:29;;;;11.00
70969;BMP280;58630;43.022;25.100;2024-03-08T08:58:55;;;;11.00
70969;BMP280;58630;43.022;25.100;2024-03-08T09:01:20;;;;11.00
70969;BMP280;58630;43.022;25.100;2024-03-08T09:03:46;;;;11.00
70969;BMP280;58630;43.022;25.100;2024-03-08T09:06:15;;;;11.00
70969;BMP280;58630;43.022;25.100;2024-03-08T09:08:41;;;;11.00
70969;BMP280;58630;43.022;25.100;2024-03-08T09:11:07;;;;11.00
70969;BMP280;58630;43.022;25.100;2024-03-08T09:13:33;;;;11.00
70969;BMP280;58630;43.022;25.100;2024-03-08T09:16:04;;;;11.00
70969;BMP280;58630;43.022;25.100;2024-03-08T09:18:33;;;;11.00
70969;BMP280;58630;43.022;25.100;2024-03-08T09:20:58;;;;11.00
70969;BMP280;58630;43.022;25.100;2024-03-08T09:23:25;;;;11.00
70969;BMP280;58630;43.022;25.100;2024-03-08T09:25:57;;;;11.00
70969;BMP280;58630;43.022;25.100;2024-03-08T09:28:23;;;;11.00
70969;BMP280;58630;43.022;25.100;2024-03-08T09:30:49;;;;11.00
70969;BMP280;58630;43.022;25.100;2024-03-08T09:33:14;;;;11.00
70969;BMP280;58630;43.022;25.100;2024-03-08T09:35:47;;;;11.00
70969;BMP280;58630;43.022;25.100;2024-03-08T09:38:13;;;;11.00
70969;BMP280;58630;43.022;25.100;2024-03-08T09:40:43;;;;11.10
70969;BMP280;58630;43.022;25.100;2024-03-08T09:43:09;;;;11.10
70969;BMP280;58630;43.022;25.100;2024-03-08T09:45:37;;;;11.10
70969;BMP280;58630;43.022;25.100;2024-03-08T09:48:08;;;;11.10
70969;BMP280;58630;43.022;25.100;2024-03-08T09:50:36;;;;11.10
70969;BMP280;58630;43.022;25.100;2024-03-08T09:53:02;;;;11.10
70969;BMP280;58630;43.022;25.100;2024-03-08T09:55:28;;;;11.10
70969;BMP280;58630;43.022;25.100;2024-03-08T09:57:59;;;;11.10
70969;BMP280;58630;43.022;25.100;2024-03-08T10:00:44;;;;11.10
70969;BMP280;58630;43.022;25.100;2024-03-08T10:03:10;;;;11.10
70969;BMP280;58630;43.022;25.100;2024-03-08T10:05:36;;;;11.00
70969;BMP280;58630;43.022;25.100;2024-03-08T10:08:02;;;;11.10
70969;BMP280;58630;43.022;25.100;2024-03-08T10:10:27;;;;11.10
70969;BMP280;58630;43.022;25.100;2024-03-08T10:12:53;;;;11.00
70969;BMP280;58630;43.022;25.100;2024-03-08T10:15:19;;;;11.00
70969;BMP280;58630;43.022;25.100;2024-03-08T10:17:45;;;;11.00
70969;BMP280;58630;43.022;25.100;2024-03-08T10:20:17;;;;11.00
70969;BMP280;58630;43.022;25.100;2024-03-08T10:22:43;;;;11.00
70969;BMP280;58630;43.022;25.100;2024-03-08T10:25:12;;;;11.00
70969;BMP280;58630;43.022;25.100;2024-03-08T10:27:38;;;;11.00
70969;BMP280;58630;43.022;25.100;2024-03-08T10:30:04;;;;11.00
70969;BMP280;58630;43.022;25.100;2024-03-08T10:32:31;;;;11.00
70969;BMP280;58630;43.022;25.100;2024-03-08T10:34:57;;;;11.00
70969;BMP280;58630;43.022;25.100;2024-03-08T10:37:22;;;;11.00
70969;BMP280;58630;43.022;25.100;2024-03-08T10:39:57;;;;11.00
70969;BMP280;58630;43.022;25.100;2024-03-08T10:42:28;;;;11.00
70969;BMP280;58630;43.022;25.100;2024-03-08T10:45:05;;;;11.00
70969;BMP280;58630;43.022;25.100;2024-03-08T10:47:39;;;;11.00
70969;BMP280;58630;43.022;25.100;2024-03-08T10:50:19;;;;11.10
70969;BMP280;58630;43.022;25.100;2024-03-08T10:52:49;;;;11.10
70969;BMP280;58630;43.022;25.100;2024-03-08T10:55:14;;;;11.10
70969;BMP280;58630;43.022;25.100;2024-03-08T10:57:41;;;;11.10
70969;BMP280;58630;43.022;25.100;2024-03-08T11:00:08;;;;11.10
70969;BMP280;58630;43.022;25.100;2024-03-08T11:02:37;;;;11.10
70969;BMP280;58630;43.022;25.100;2024-03-08T11:05:09;;;;11.10
70969;BMP280;58630;43.022;25.100;2024-03-08T11:07:40;;;;11.10
70969;BMP280;58630;43.022;25.100;2024-03-08T11:10:06;;;;11.10
70969;BMP280;58630;43.022;25.100;2024-03-08T11:12:38;;;;11.10
70969;BMP280;58630;43.022;25.100;2024-03-08T11:15:11;;;;11.10
70969;BMP280;58630;43.022;25.100;2024-03-08T11:22:41;;;;11.10
70969;BMP280;58630;43.022;25.100;2024-03-08T11:25:08;;;;11.10
70969;BMP280;58630;43.022;25.100;2024-03-08T11:27:35;;;;11.00
70969;BMP280;58630;43.022;25.100;2024-03-08T11:30:03;;;;11.10
70969;BMP280;58630;43.022;25.100;2024-03-08T11:32:36;;;;11.00
70969;BMP280;58630;43.022;25.100;2024-03-08T11:35:06;;;;11.10
70969;BMP280;58630;43.022;25.100;2024-03-08T11:37:33;;;;11.00
70969;BMP280;58630;43.022;25.100;2024-03-08T11:40:00;;;;11.00
70969;BMP280;58630;43.022;25.100;2024-03-08T11:42:26;;;;11.00
70969;BMP280;58630;43.022;25.100;2024-03-08T11:44:52;;;;11.10
70969;BMP280;58630;43.022;25.100;2024-03-08T11:47:18;;;;11.10
70969;BMP280;58630;43.022;25.100;2024-03-08T11:49:44;;;;11.10
70969;BMP280;58630;43.022;25.100;2024-03-08T11:52:13;;;;11.10
70969;BMP280;58630;43.022;25.100;2024-03-08T11:54:42;;;;11.10
70969;BMP280;58630;43.022;25.100;2024-03-08T11:57:08;;;;11.10
70969;BMP280;58630;43.022;25.100;2024-03-08T11:59:35;;;;11.10
70969;BMP280;58630;43.022;25.100;2024-03-08T12:02:01;;;;11.10
70969;BMP280;58630;43.022;25.100;2024-03-08T12:04:27;;;;11.10
70969;BMP280;58630;43.022;25.100;2024-03-08T12:06:53;;;;11.10
70969;BMP280;58630;43.022;25.100;2024-03-08T12:09:18;;;;11.10
70969;BMP280;58630;43.022;25.100;2024-03-08T12:11:47;;;;11.10
70969;BMP280;58630;43.022;25.100;2024-03-08T12:14:13;;;;11.10
70969;BMP280;58630;43.022;25.100;2024-03-08T12:16:38;;;;11.10
70969;BMP280;58630;43.022;25.100;2024-03-08T12:19:04;;;;11.10
70969;BMP280;58630;43.022;25.100;2024-03-08T12:21:30;;;;11.10
70969;BMP280;58630;43.022;25.100;2024-03-08T12:26:29;;;;11.10
70969;BMP280;58630;43.022;25.100;2024-03-08T12:29:14;;;;11.10
70969;BMP280;58630;43.022;25.100;2024-03-08T12:31:40;;;;11.10
70969;BMP280;58630;43.022;25.100;2024-03-08T12:34:07;;;;11.10
70969;BMP280;58630;43.022;25.100;2024-03-08T12:36:35;;;;11.10
70969;BMP280;58630;43.022;25.100;2024-03-08T12:39:01;;;;11.10
70969;BMP280;58630;43.022;25.100;2024-03-08T12:41:29;;;;11.10
70969;BMP280;58630;43.022;25.100;2024-03-08T12:43:54;;;;11.10
70969;BMP280;58630;43.022;25.100;2024-03-08T12:46:21;;;;11.10
70969;BMP280;58630;43.022;25.100;2024-03-08T12:48:47;;;;11.10
70969;BMP280;58630;43.022;25.100;2024-03-08T12:51:13;;;;11.10
70969;BMP280;58630;43.022;25.100;2024-03-08T12:53:39;;;;11.10
70969;BMP280;58630;43.022;25.100;2024-03-08T12:56:06;;;;11.10
70969;BMP280;58630;43.022;25.100;2024-03-08T12:58:34;;;;11.10
70969;BMP280;58630;43.022;25.100;2024-03-08T13:00:59;;;;11.10
70969;BMP280;58630;43.022;25.100;2024-03-08T13:03:25;;;;11.10
70969;BMP280;58630;43.022;25.100;2024-03-08T13:05:51;;;;11.10
70969;BMP280;58630;43.022;25.100;2024-03-08T13:08:17;;;;11.10
70969;BMP280;58630;43.022;25.100;2024-03-08T13:10:43;;;;11.10
70969;BMP280;58630;43.022;25.100;2024-03-08T13:13:11;;;;11.10
70969;BMP280;58630;43.022;25.100;2024-03-08T13:15:40;;;;11.10
70969;BMP280;58630;43.022;25.100;2024-03-08T13:18:05;;;;11.10
70969;BMP280;58630;43.022;25.100;2024-03-08T13:20:34;;;;11.10
70969;BMP280;58630;43.022;25.100;2024-03-08T13:23:02;;;;11.10
70969;BMP280;58630;43.022;25.100;2024-03-08T13:25:30;;;;11.10
70969;BMP280;58630;43.022;25.100;2024-03-08T13:27:55;;;;11.10
70969;BMP280;58630;43.022;25.100;2024-03-08T13:30:24;;;;11.10
70969;BMP280;58630;43.022;25.100;2024-03-08T13:32:52;;;;11.10
70969;BMP280;58630;43.022;25.100;2024-03-08T13:35:18;;;;11.10
70969;BMP280;58630;43.022;25.100;2024-03-08T13:37:49;;;;11.10
70969;BMP280;58630;43.022;25.100;2024-03-08T13:40:16;;;;11.10
70969;BMP280;58630;43.022;25.100;2024-03-08T13:42:44;;;;11.10
70969;BMP280;58630;43.022;25.100;2024-03-08T13:45:10;;;;11.10
70969;BMP280;58630;43.022;25.100;2024-03-08T13:47:38;;;;11.10
70969;BMP280;58630;43.022;25.100;2024-03-08T13:50:08;;;;11.10
70969;BMP280;58630;43.022;25.100;2024-03-08T13:52:40;;;;11.10
70969;BMP280;58630;43.022;25.100;2024-03-08T13:55:06;;;;11.10
70969;BMP280;58630;43.022;25.100;2024-03-08T13:57:32;;;;11.10
70969;BMP280;58630;43.022;25.100;2024-03-08T13:59:58;;;;11.10
70969;BMP280;58630;43.022;25.100;2024-03-08T14:02:24;;;;11.10
70969;BMP280;58630;43.022;25.100;2024-03-08T14:04:53;;;;11.10
70969;BMP280;58630;43.022;25.100;2024-03-08T14:07:20;;;;11.10
70969;BMP280;58630;43.022;25.100;2024-03-08T14:09:45;;;;11.10
70969;BMP280;58630;43.022;25.100;2024-03-08T14:12:11;;;;11.10
70969;BMP280;58630;43.022;25.100;2024-03-08T14:14:36;;;;11.10
70969;BMP280;58630;43.022;25.100;2024-03-08T14:17:02;;;;11.10
70969;BMP280;58630;43.022;25.100;2024-03-08T14:19:29;;;;11.10
70969;BMP280;58630;43.022;25.100;2024-03-08T14:21:56;;;;11.10
70969;BMP280;58630;43.022;25.100;2024-03-08T14:24:22;;;;11.10
70969;BMP280;58630;43.022;25.100;2024-03-08T14:26:49;;;;11.10
70969;BMP280;58630;43.022;25.100;2024-03-08T14:29:14;;;;11.10
70969;BMP280;58630;43.022;25.100;2024-03-08T14:31:40;;;;11.20
70969;BMP280;58630;43.022;25.100;2024-03-08T14:34:06;;;;11.10
70969;BMP280;58630;43.022;25.100;2024-03-08T14:36:32;;;;11.10
70969;BMP280;58630;43.022;25.100;2024-03-08T14:38:58;;;;11.10
70969;BMP280;58630;43.022;25.100;2024-03-08T14:41:23;;;;11.10
70969;BMP280;58630;43.022;25.100;2024-03-08T14:43:49;;;;11.10
70969;BMP280;58630;43.022;25.100;2024-03-08T14:46:15;;;;11.10
70969;BMP280;58630;43.022;25.100;2024-03-08T14:48:55;;;;11.10
70969;BMP280;58630;43.022;25.100;2024-03-08T14:51:21;;;;11.10
70969;BMP280;58630;43.022;25.100;2024-03-08T14:53:52;;;;11.10
70969;BMP280;58630;43.022;25.100;2024-03-08T14:56:17;;;;11.10
70969;BMP280;58630;43.022;25.100;2024-03-08T14:58:43;;;;11.10
70969;BMP280;58630;43.022;25.100;2024-03-08T15:01:12;;;;11.10
70969;BMP280;58630;43.022;25.100;2024-03-08T15:03:40;;;;11.10
70969;BMP280;58630;43.022;25.100;2024-03-08T15:06:06;;;;11.10
70969;BMP280;58630;43.022;25.100;2024-03-08T15:08:34;;;;11.10
70969;BMP280;58630;43.022;25.100;2024-03-08T15:11:00;;;;11.10
70969;BMP280;58630;43.022;25.100;2024-03-08T15:13:25;;;;11.10
70969;BMP280;58630;43.022;25.100;2024-03-08T15:16:00;;;;11.10
70969;BMP280;58630;43.022;25.100;2024-03-08T15:18:25;;;;11.10
70969;BMP280;58630;43.022;25.100;2024-03-08T15:20:56;;;;11.10
70969;BMP280;58630;43.022;25.100;2024-03-08T15:23:24;;;;11.10
70969;BMP280;58630;43.022;25.100;2024-03-08T15:25:50;;;;11.10
70969;BMP280;58630;43.022;25.100;2024-03-08T15:28:16;;;;11.10
70969;BMP280;58630;43.022;25.100;2024-03-08T15:30:44;;;;11.10
70969;BMP280;58630;43.022;25.100;2024-03-08T15:33:19;;;;11.00
70969;BMP280;58630;43.022;25.100;2024-03-08T15:35:51;;;;11.00
70969;BMP280;58630;43.022;25.100;2024-03-08T15:38:25;;;;11.00
70969;BMP280;58630;43.022;25.100;2024-03-08T15:40:55;;;;11.00
70969;BMP280;58630;43.022;25.100;2024-03-08T15:43:23;;;;11.00
70969;BMP280;58630;43.022;25.100;2024-03-08T15:45:50;;;;11.00
70969;BMP280;58630;43.022;25.100;2024-03-08T15:48:16;;;;11.00
70969;BMP280;58630;43.022;25.100;2024-03-08T15:50:41;;;;11.00